createdAt,value
2022-08-15T00:01:44.247Z,100326.69
2022-08-15T00:06:50.159Z,100323.16
2022-08-15T00:11:56.234Z,100314.28
2022-08-15T00:17:09.873Z,100324.09
2022-08-15T00:22:18.413Z,100303.44
2022-08-15T00:27:25.818Z,100298.09
2022-08-15T00:33:03.634Z,100297.19
2022-08-15T00:38:13.277Z,100300.91
2022-08-15T00:43:19.440Z,100286.88
2022-08-15T00:48:40.224Z,100282.47
2022-08-15T00:53:48.281Z,100281.97
2022-08-15T00:58:51.425Z,100289.25
2022-08-15T01:03:57.583Z,100277.69
2022-08-15T01:09:02.152Z,100273.28
2022-08-15T01:14:55.879Z,100276.19
2022-08-15T01:20:12.298Z,100279.22
2022-08-15T01:26:41.943Z,100273.16
2022-08-15T01:31:04.435Z,100276.75
2022-08-15T01:36:33.436Z,100279.06
2022-08-15T01:41:42.373Z,100271.75
2022-08-15T01:47:13.301Z,100271.19
2022-08-15T01:52:59.212Z,100263.84
2022-08-15T01:57:41.192Z,100285.06
2022-08-15T02:02:47.167Z,100287.78
2022-08-15T02:08:34.720Z,100272.94
2022-08-15T02:13:15.921Z,100267.75
2022-08-15T02:18:19.911Z,100260.41
2022-08-15T02:23:26.300Z,100257.81
2022-08-15T02:28:35.832Z,100252.84
2022-08-15T02:33:43.205Z,100245.03
2022-08-15T02:38:50.122Z,100249.47
2022-08-15T02:43:52.930Z,100241.56
2022-08-15T02:48:57.152Z,100241.53
2022-08-15T02:54:36.040Z,100231.84
2022-08-15T02:59:29.506Z,100217.09
2022-08-15T03:04:35.530Z,100211.13
2022-08-15T03:09:40.957Z,100222.91
2022-08-15T03:15:01.317Z,100217.97
2022-08-15T03:20:06.635Z,100214.47
2022-08-15T03:25:11.085Z,100202.25
2022-08-15T03:30:19.240Z,100211.50
2022-08-15T03:35:29.916Z,100197.47
2022-08-15T03:40:36.074Z,100191.44
2022-08-15T03:45:42.220Z,100189.72
2022-08-15T03:50:46.296Z,100189.81
2022-08-15T03:55:54.224Z,100184.75
2022-08-15T04:00:59.259Z,100184.16
2022-08-15T04:06:07.615Z,100189.69
2022-08-15T04:11:11.167Z,100186.28
2022-08-15T04:17:01.933Z,100177.38
2022-08-15T04:21:50.956Z,100164.13
2022-08-15T04:26:56.321Z,100157.94
2022-08-15T04:32:02.646Z,100160.72
2022-08-15T04:37:06.814Z,100157.44
2022-08-15T04:42:19.034Z,100156.56
2022-08-15T04:47:24.624Z,100169.00
2022-08-15T04:53:04.613Z,100183.06
2022-08-15T04:58:42.483Z,100187.47
2022-08-15T05:03:30.785Z,100191.00
2022-08-15T05:08:35.934Z,100194.44
2022-08-15T05:13:43.859Z,100197.09
2022-08-15T05:18:55.646Z,100186.09
2022-08-15T05:23:57.233Z,100185.03
2022-08-15T05:29:03.360Z,100169.44
2022-08-15T05:34:07.881Z,100174.28
2022-08-15T05:39:26.172Z,100187.88
2022-08-15T05:45:09.578Z,100176.31
2022-08-15T05:50:28.517Z,100177.44
2022-08-15T05:55:56.111Z,100184.09
2022-08-15T06:01:30.341Z,100181.16
2022-08-15T06:06:46.419Z,100178.28
2022-08-15T06:11:54.133Z,100164.66
2022-08-15T06:17:01.517Z,100184.84
2022-08-15T06:22:26.086Z,100183.88
2022-08-15T06:27:49.481Z,100192.69
2022-08-15T06:33:17.256Z,100206.34
2022-08-15T06:38:43.563Z,100213.03
2022-08-15T06:43:46.416Z,100202.50
2022-08-15T06:49:05.974Z,100189.59
2022-08-15T06:54:34.860Z,100185.00
2022-08-15T07:00:34.386Z,100193.88
2022-08-15T07:05:55.151Z,100204.34
2022-08-15T07:11:28.271Z,100198.25
2022-08-15T07:17:01.434Z,100196.56
2022-08-15T07:22:06.375Z,100195.44
2022-08-15T07:27:17.355Z,100178.00
2022-08-15T07:32:32.737Z,100182.94
2022-08-15T07:37:39.810Z,100177.63
2022-08-15T07:42:59.674Z,100181.50
2022-08-15T07:48:25.785Z,100178.75
2022-08-15T07:53:35.746Z,100191.97
2022-08-15T07:58:40.645Z,100192.94
2022-08-15T08:03:51.805Z,100190.31
2022-08-15T08:09:13.093Z,100210.31
2022-08-15T08:14:41.151Z,100209.88
2022-08-15T08:20:05.213Z,100196.06
2022-08-15T08:25:22.748Z,100200.28
2022-08-15T08:30:58.611Z,100203.63
2022-08-15T08:36:33.603Z,100200.47
2022-08-15T08:42:26.057Z,100201.25
2022-08-15T08:48:02.915Z,100196.66
2022-08-15T08:53:33.672Z,100199.44
2022-08-15T08:58:48.102Z,100201.56
2022-08-15T09:03:57.670Z,100198.94
2022-08-15T09:09:22.828Z,100196.94
2022-08-15T09:14:35.000Z,100204.78
2022-08-15T09:20:00.635Z,100207.56
2022-08-15T09:25:07.188Z,100210.25
2022-08-15T09:30:45.710Z,100210.97
2022-08-15T09:35:57.633Z,100209.81
2022-08-15T09:41:24.819Z,100209.19
2022-08-15T09:47:01.659Z,100197.47
2022-08-15T09:52:49.196Z,100196.34
2022-08-15T09:57:55.659Z,100195.88
2022-08-15T10:03:08.053Z,100192.31
2022-08-15T10:08:14.477Z,100182.72
2022-08-15T10:13:46.930Z,100187.38
2022-08-15T10:18:52.168Z,100184.69
2022-08-15T10:23:59.509Z,100187.44
2022-08-15T10:29:03.677Z,100179.78
2022-08-15T10:34:06.185Z,100181.41
2022-08-15T10:39:49.497Z,100181.03
2022-08-15T10:45:16.891Z,100175.00
2022-08-15T10:50:31.569Z,100178.34
2022-08-15T10:55:57.317Z,100173.16
2022-08-15T11:01:07.818Z,100167.16
2022-08-15T11:06:14.763Z,100164.34
2022-08-15T11:11:20.478Z,100171.81
2022-08-15T11:16:37.934Z,100168.53
2022-08-15T11:21:46.313Z,100169.22
2022-08-15T11:27:31.177Z,100169.75
2022-08-15T11:32:38.023Z,100163.97
2022-08-15T11:37:44.318Z,100163.94
2022-08-15T11:42:58.176Z,100156.19
2022-08-15T11:48:51.106Z,100154.81
2022-08-15T11:54:11.384Z,100141.88
2022-08-15T11:59:22.528Z,100147.03
2022-08-15T12:04:39.734Z,100129.81
2022-08-15T12:10:04.591Z,100129.31
2022-08-15T12:15:32.179Z,100118.69
2022-08-15T12:21:01.755Z,100121.34
2022-08-15T12:26:40.575Z,100120.94
2022-08-15T12:31:49.489Z,100126.34
2022-08-15T12:37:04.819Z,100112.41
2022-08-15T12:42:47.356Z,100111.03
2022-08-15T12:48:07.419Z,100125.69
2022-08-15T12:53:18.937Z,100115.41
2022-08-15T12:58:33.521Z,100104.31
2022-08-15T13:09:15.032Z,100106.09
2022-08-15T13:14:30.450Z,100133.09
2022-08-15T13:19:58.841Z,100152.56
2022-08-15T13:25:02.313Z,100154.72
2022-08-15T13:30:20.146Z,100145.22
2022-08-15T13:35:59.194Z,100147.13
2022-08-15T13:48:15.399Z,100156.66
2022-08-15T13:53:39.435Z,100166.25
2022-08-15T13:58:58.677Z,100156.91
2022-08-15T14:04:25.425Z,100174.91
2022-08-15T14:10:02.542Z,100181.06
2022-08-15T14:16:42.024Z,100171.56
2022-08-15T15:11:30.765Z,100149.03
2022-08-15T15:17:01.375Z,100155.47
2022-08-15T15:22:33.358Z,100164.75
2022-08-15T15:27:59.714Z,100171.81
2022-08-15T15:33:23.627Z,100177.06
2022-08-15T15:38:58.884Z,100186.66
2022-08-15T15:44:49.983Z,100177.22
2022-08-15T15:49:52.275Z,100182.16
2022-08-15T15:55:00.276Z,100176.81
2022-08-15T16:07:00.928Z,100160.38
2022-08-15T16:24:49.522Z,100186.91
2022-08-15T16:31:19.059Z,100197.56
2022-08-15T16:36:29.862Z,100205.25
2022-08-15T16:42:49.640Z,100204.47
2022-08-15T16:48:36.999Z,100201.88
2022-08-15T17:21:08.825Z,100222.91
2022-08-15T17:32:19.376Z,100225.38
2022-08-15T17:37:50.636Z,100233.75
2022-08-15T17:49:18.585Z,100227.56
2022-08-15T17:54:52.756Z,100233.19
2022-08-15T18:07:03.986Z,100232.28
2022-08-15T18:12:18.430Z,100230.88
2022-08-15T18:17:32.395Z,100240.38
2022-08-15T18:22:35.544Z,100222.59
2022-08-15T18:27:55.949Z,100220.97
2022-08-15T18:38:30.821Z,100227.91
2022-08-15T18:44:34.025Z,100222.41
2022-08-15T18:58:16.397Z,100237.44
2022-08-15T19:03:50.183Z,100248.25
2022-08-15T19:24:05.445Z,100273.50
2022-08-15T19:29:19.401Z,100283.72
2022-08-15T19:34:29.722Z,100290.53
2022-08-15T19:40:06.037Z,100287.50
2022-08-15T19:45:28.186Z,100282.41
2022-08-15T19:50:53.565Z,100280.16
2022-08-15T19:56:29.022Z,100280.34
2022-08-15T20:01:49.027Z,100285.78
2022-08-15T20:07:11.144Z,100284.41
2022-08-15T20:13:12.691Z,100279.53
2022-08-15T20:18:35.120Z,100281.66
2022-08-15T20:24:19.677Z,100285.34
2022-08-15T20:29:39.097Z,100295.25
2022-08-15T20:35:13.134Z,100307.06
2022-08-15T20:40:21.269Z,100323.41
2022-08-15T20:45:31.969Z,100310.09
2022-08-15T20:50:34.799Z,100315.53
2022-08-15T20:55:44.204Z,100309.59
2022-08-15T21:01:33.474Z,100320.19
2022-08-15T21:06:39.862Z,100315.19
2022-08-15T21:11:51.316Z,100329.59
2022-08-15T21:16:59.038Z,100328.78
2022-08-15T21:22:48.667Z,100337.13
2022-08-15T21:28:02.166Z,100341.75
2022-08-15T21:33:10.259Z,100343.63
2022-08-15T21:38:50.506Z,100352.69
2022-08-15T21:44:50.874Z,100348.50
2022-08-15T21:49:57.028Z,100354.84
2022-08-15T21:55:03.219Z,100345.22
2022-08-15T22:00:31.857Z,100349.72
2022-08-15T22:05:39.107Z,100363.97
2022-08-15T22:10:44.813Z,100364.94
2022-08-15T22:15:50.306Z,100367.59
2022-08-15T22:20:52.633Z,100373.09
2022-08-15T22:25:58.659Z,100377.81
2022-08-15T22:31:15.792Z,100384.47
2022-08-15T22:36:18.233Z,100383.94
2022-08-15T22:41:28.397Z,100384.03
2022-08-15T22:46:41.420Z,100388.59
2022-08-15T22:51:50.624Z,100392.19
2022-08-15T22:56:56.985Z,100384.22
2022-08-15T23:02:06.101Z,100383.41
2022-08-15T23:07:20.995Z,100377.28
2022-08-15T23:12:33.967Z,100384.50
2022-08-15T23:18:09.307Z,100388.13
2022-08-15T23:23:29.219Z,100385.63
2022-08-15T23:28:56.603Z,100390.19
2022-08-15T23:34:01.841Z,100383.13
2022-08-15T23:39:07.761Z,100381.38
2022-08-15T23:44:09.434Z,100378.78
2022-08-15T23:49:20.110Z,100391.25
2022-08-15T23:54:32.940Z,100397.41
2022-08-15T23:59:41.954Z,100390.53
